Time;durP1;ratioP1;P1;durP2;ratioP2;P2;SDS_P1;SDS_P2;PMS_P1;PMS_P2;Temp;Humidity;BMP_temperature;BMP_pressure;BME280_temperature;BME280_humidity;BME280_pressure;Samples;Min_cycle;Max_cycle;Signal;HPM_P1;HPM_P2
2021/01/12 00:00:31;;;;;;;21.30;11.53;;;;;;;0.89;86.53;97989.23;1603361;88;21791;-65
2021/01/12 00:03:03;;;;;;;22.00;11.22;;;;;;;0.92;86.33;97997.56;1601611;88;21639;-68
2021/01/12 00:05:32;;;;;;;20.95;10.15;;;;;;;0.96;86.28;97989.27;1601301;88;21255;-67
2021/01/12 00:08:00;;;;;;;20.10;11.22;;;;;;;1.01;86.23;97988.58;1601532;88;21228;-67
2021/01/12 00:10:29;;;;;;;14.25;9.05;;;;;;;1.05;86.24;97989.23;1601388;88;21248;-64
2021/01/12 00:12:57;;;;;;;21.02;10.50;;;;;;;1.08;86.16;97989.89;1601398;88;21192;-64
2021/01/12 00:15:25;;;;;;;19.17;11.03;;;;;;;1.11;86.04;97992.72;1601653;89;21199;-64
2021/01/12 00:17:54;;;;;;;18.85;10.58;;;;;;;1.11;86.04;97991.00;1599949;88;21215;-66
2021/01/12 00:20:22;;;;;;;13.13;9.08;;;;;;;1.14;85.98;97990.82;1601363;88;21199;-69
2021/01/12 00:22:50;;;;;;;16.07;10.18;;;;;;;1.16;85.97;98000.53;1600888;88;21196;-69
2021/01/12 00:25:19;;;;;;;15.83;7.15;;;;;;;1.17;86.06;97992.38;1601051;88;21176;-69
2021/01/12 00:27:49;;;;;;;11.60;7.28;;;;;;;1.15;85.99;97988.64;1600303;89;21248;-64
2021/01/12 00:30:18;;;;;;;16.10;7.62;;;;;;;1.12;86.08;97991.83;1601337;87;21183;-66
2021/01/12 00:32:46;;;;;;;13.35;7.28;;;;;;;1.12;85.97;97988.81;1601315;88;21233;-65
2021/01/12 00:35:14;;;;;;;16.05;9.20;;;;;;;1.12;86.01;97989.27;1601053;88;21188;-68
2021/01/12 00:37:43;;;;;;;11.90;6.62;;;;;;;1.11;86.11;97985.05;1601440;88;21191;-68
2021/01/12 00:40:13;;;;;;;14.50;8.43;;;;;;;1.10;86.18;97984.67;1600846;88;21220;-68
2021/01/12 00:42:43;;;;;;;14.05;9.88;;;;;;;1.08;86.20;97980.94;1600895;88;21215;-68
2021/01/12 00:45:13;;;;;;;15.30;7.70;;;;;;;1.09;86.18;97983.05;1601348;88;21577;-69
2021/01/12 00:47:44;;;;;;;18.15;8.80;;;;;;;1.09;86.18;97976.17;1601293;88;21224;-69
2021/01/12 00:50:12;;;;;;;10.43;7.70;;;;;;;1.10;86.21;97975.27;1601232;88;21251;-68
2021/01/12 00:52:41;;;;;;;13.00;7.00;;;;;;;1.14;86.11;97978.03;1600236;88;21246;-69
2021/01/12 00:55:10;;;;;;;10.50;7.30;;;;;;;1.17;86.15;97975.30;1600860;88;21192;-69
2021/01/12 00:57:39;;;;;;;13.35;8.45;;;;;;;1.17;86.13;97972.74;1601227;88;21212;-69
2021/01/12 01:00:30;;;;;;;11.28;8.73;;;;;;;1.17;86.05;97976.58;1601222;88;21640;-68
2021/01/12 01:02:58;;;;;;;11.50;8.83;;;;;;;1.18;85.93;97979.52;1725933;82;21167;-67
2021/01/12 01:05:26;;;;;;;13.62;7.85;;;;;;;1.18;85.97;97974.40;1725906;81;21230;-70
2021/01/12 01:07:54;;;;;;;16.32;8.38;;;;;;;1.20;85.91;97970.04;1725825;81;21198;-67
2021/01/12 01:10:23;;;;;;;12.28;8.30;;;;;;;1.22;85.91;97968.66;1725736;82;21203;-68
2021/01/12 01:12:51;;;;;;;12.10;6.97;;;;;;;1.22;85.91;97959.25;1725826;81;21182;-66
2021/01/12 01:15:19;;;;;;;14.75;7.58;;;;;;;1.20;86.05;97964.92;1725790;82;21183;-69
2021/01/12 01:17:47;;;;;;;12.93;7.08;;;;;;;1.03;87.03;97965.02;1725857;81;21166;-69
2021/01/12 01:20:17;;;;;;;14.15;8.43;;;;;;;0.95;87.41;97971.00;1725808;82;21140;-69
2021/01/12 01:22:45;;;;;;;10.32;7.05;;;;;;;0.90;87.64;97971.69;1726245;82;21163;-70
2021/01/12 01:25:15;;;;;;;13.60;8.55;;;;;;;0.86;87.77;97966.37;1726212;82;21128;-67
2021/01/12 01:27:44;;;;;;;12.15;7.45;;;;;;;0.88;87.74;97964.57;1726329;82;21195;-67
2021/01/12 01:30:35;;;;;;;11.78;8.18;;;;;;;0.91;87.57;97952.89;1726522;82;21577;-68
2021/01/12 01:33:04;;;;;;;17.20;8.45;;;;;;;1.00;87.46;97956.69;1603459;88;21631;-67
2021/01/12 01:35:32;;;;;;;15.78;8.65;;;;;;;1.08;87.24;97955.81;1603697;88;21643;-67
2021/01/12 01:38:01;;;;;;;15.25;8.90;;;;;;;1.13;87.04;97953.36;1603390;88;22123;-68
2021/01/12 01:40:31;;;;;;;19.10;9.43;;;;;;;1.20;86.89;97953.41;1604038;88;21263;-66
2021/01/12 01:42:59;;;;;;;14.60;10.30;;;;;;;1.19;86.49;97949.20;1603579;88;21210;-65
2021/01/12 01:45:27;;;;;;;17.90;9.63;;;;;;;1.17;86.64;97945.05;1603451;88;21619;-69
2021/01/12 01:47:56;;;;;;;25.30;12.13;;;;;;;1.02;87.27;97945.45;1603471;88;21168;-70
2021/01/12 01:50:24;;;;;;;18.90;11.10;;;;;;;0.89;87.58;97937.66;1603765;88;21211;-68
2021/01/12 01:52:56;;;;;;;20.92;10.58;;;;;;;0.88;88.11;97941.56;1603841;88;21172;-68
2021/01/12 01:55:25;;;;;;;18.05;10.18;;;;;;;0.74;88.65;97945.33;1603383;88;21204;-67
2021/01/12 01:57:53;;;;;;;17.75;10.55;;;;;;;0.77;88.67;97945.98;1603263;88;21188;-65
2021/01/12 02:00:27;;;;;;;11.80;6.70;;;;;;;0.78;88.50;97948.06;1603055;88;21216;-65
2021/01/12 02:03:19;;;;;;;9.98;7.40;;;;;;;0.83;88.27;97946.09;1603222;88;21283;-65
2021/01/12 02:05:58;;;;;;;15.95;9.10;;;;;;;0.82;88.46;97938.05;1603427;87;21219;-64
2021/01/12 02:08:38;;;;;;;10.35;7.78;;;;;;;0.84;88.18;97937.08;1603923;88;21191;-64
2021/01/12 02:11:09;;;;;;;9.75;7.85;;;;;;;0.82;88.15;97938.88;1601588;88;21809;-66
2021/01/12 02:13:39;;;;;;;12.75;8.43;;;;;;;0.78;88.34;97942.95;1603143;88;21660;-66
2021/01/12 02:16:08;;;;;;;14.63;7.92;;;;;;;0.73;88.67;97943.67;1603165;88;21191;-64
2021/01/12 02:18:37;;;;;;;13.95;7.72;;;;;;;0.77;88.58;97942.60;1583930;89;21168;-64
2021/01/12 02:21:12;;;;;;;11.63;6.80;;;;;;;0.79;88.52;97939.05;1602919;88;21641;-65
2021/01/12 02:23:56;;;;;;;10.13;6.78;;;;;;;0.68;89.04;97936.70;1603453;88;21212;-64
2021/01/12 02:26:29;;;;;;;13.93;8.38;;;;;;;0.70;89.01;97936.18;1603772;88;21235;-69
2021/01/12 02:28:57;;;;;;;14.40;7.10;;;;;;;0.73;88.77;97935.55;1603664;89;21197;-68
2021/01/12 02:31:31;;;;;;;11.95;6.62;;;;;;;0.74;88.90;97931.27;1605647;87;21186;-67
2021/01/12 02:34:04;;;;;;;10.08;6.70;;;;;;;0.76;88.74;97927.72;1610764;87;21348;-72
2021/01/12 02:36:35;;;;;;;14.33;7.55;;;;;;;0.82;88.52;97926.54;1610432;87;21607;-68
2021/01/12 02:39:04;;;;;;;5.30;4.70;;;;;;;0.84;88.33;97915.80;1610312;87;21210;-71
2021/01/12 02:41:33;;;;;;;8.65;6.28;;;;;;;0.88;88.17;97919.83;1610562;87;21316;-66
2021/01/12 02:44:02;;;;;;;9.78;6.87;;;;;;;0.90;87.97;97923.11;1610516;87;21324;-64
2021/01/12 02:46:31;;;;;;;14.13;8.23;;;;;;;0.90;87.88;97918.83;1610366;87;21194;-67
2021/01/12 02:49:00;;;;;;;10.55;6.05;;;;;;;0.94;87.81;97909.25;1610581;87;21197;-67
2021/01/12 02:51:28;;;;;;;7.62;5.70;;;;;;;0.94;87.75;97904.14;1610253;87;21215;-69
2021/01/12 02:53:56;;;;;;;7.62;6.03;;;;;;;0.97;87.63;97907.00;1610472;87;21182;-67
2021/01/12 02:56:24;;;;;;;11.18;7.03;;;;;;;0.97;87.49;97904.00;1610332;87;21170;-68
2021/01/12 02:58:52;;;;;;;12.58;9.28;;;;;;;0.97;87.54;97899.33;1610661;87;21701;-66
2021/01/12 03:01:21;;;;;;;13.25;8.60;;;;;;;0.89;87.79;97898.03;1610403;87;21178;-68
2021/01/12 03:03:49;;;;;;;12.88;8.70;;;;;;;0.67;88.86;97889.87;1610494;87;21598;-68
2021/01/12 03:06:18;;;;;;;8.90;6.53;;;;;;;0.66;88.99;97893.32;1610509;87;21578;-66
2021/01/12 03:08:46;;;;;;;14.18;8.75;;;;;;;0.71;88.69;97881.13;1610380;87;21234;-66
2021/01/12 03:11:14;;;;;;;13.65;9.30;;;;;;;0.72;88.52;97877.67;1610496;87;21191;-66
2021/01/12 03:13:42;;;;;;;13.03;7.90;;;;;;;0.69;88.95;97877.02;1610484;87;21802;-66
2021/01/12 03:16:10;;;;;;;12.43;10.23;;;;;;;0.69;89.18;97875.73;1610283;87;21159;-66
2021/01/12 03:18:39;;;;;;;10.72;8.63;;;;;;;0.57;89.48;97878.51;1610284;87;21174;-68
2021/01/12 03:21:07;;;;;;;11.33;8.00;;;;;;;0.60;89.43;97873.67;1610487;87;21178;-67
2021/01/12 03:23:35;;;;;;;11.93;8.13;;;;;;;0.65;89.16;97874.26;1610465;87;21587;-68
2021/01/12 03:26:03;;;;;;;12.13;7.35;;;;;;;0.70;88.96;97867.97;1610352;87;21167;-68
2021/01/12 03:28:32;;;;;;;13.48;7.33;;;;;;;0.77;88.76;97868.48;1610575;87;21611;-68
2021/01/12 03:31:01;;;;;;;14.55;6.10;;;;;;;0.83;88.62;97868.13;1610708;87;21234;-68
2021/01/12 03:33:31;;;;;;;12.30;6.35;;;;;;;0.89;88.36;97866.52;1610741;87;21329;-68
2021/01/12 03:35:59;;;;;;;10.10;6.85;;;;;;;0.91;88.04;97865.52;1610676;87;21182;-66
2021/01/12 03:38:27;;;;;;;10.75;6.85;;;;;;;0.90;87.98;97865.59;1610939;87;21723;-66
2021/01/12 03:40:54;;;;;;;8.90;5.62;;;;;;;0.93;87.76;97863.68;1611135;87;21159;-68
2021/01/12 03:43:22;;;;;;;7.87;5.85;;;;;;;0.97;87.83;97860.53;1610386;87;21607;-69
2021/01/12 03:45:51;;;;;;;11.90;7.90;;;;;;;0.97;87.65;97857.14;1610546;87;21591;-69
2021/01/12 03:48:41;;;;;;;9.65;6.25;;;;;;;1.00;87.72;97859.52;1610664;87;21215;-68
2021/01/12 03:51:09;;;;;;;10.75;7.35;;;;;;;1.06;87.65;97868.94;1663360;84;21238;-66
2021/01/12 03:53:38;;;;;;;9.60;6.70;;;;;;;1.12;87.48;97861.39;1663907;84;21210;-69
2021/01/12 03:56:07;;;;;;;7.75;6.45;;;;;;;1.17;87.41;97864.48;1663589;84;21167;-68
2021/01/12 03:58:36;;;;;;;14.73;8.78;;;;;;;1.23;87.36;97859.87;1663635;84;21139;-66
2021/01/12 04:01:05;;;;;;;10.48;6.62;;;;;;;1.30;87.30;97861.16;1663494;85;21176;-66
2021/01/12 04:03:35;;;;;;;15.35;8.73;;;;;;;1.39;87.06;97861.92;1663678;84;21132;-68
2021/01/12 04:06:16;;;;;;;15.03;7.55;;;;;;;1.46;86.92;97858.99;1663491;84;21183;-69
2021/01/12 04:08:47;;;;;;;13.48;7.83;;;;;;;1.47;86.39;97859.37;1663752;84;21195;-68
2021/01/12 04:11:18;;;;;;;12.80;7.12;;;;;;;1.43;86.16;97851.05;1664243;84;21206;-69
2021/01/12 04:13:47;;;;;;;13.53;7.87;;;;;;;1.40;86.05;97848.19;1664570;84;21202;-69
2021/01/12 04:16:16;;;;;;;14.95;9.75;;;;;;;1.34;86.06;97848.56;1663965;85;21180;-69
2021/01/12 04:18:44;;;;;;;12.58;8.53;;;;;;;1.30;86.10;97844.53;1663465;84;21164;-68
2021/01/12 04:21:12;;;;;;;11.73;8.03;;;;;;;1.25;86.16;97843.14;1663399;84;21610;-69
2021/01/12 04:23:41;;;;;;;11.97;7.62;;;;;;;1.23;86.18;97839.41;1663181;84;21171;-68
2021/01/12 04:26:09;;;;;;;16.82;8.28;;;;;;;1.22;86.30;97828.80;1663469;84;21159;-69
2021/01/12 04:28:38;;;;;;;10.98;6.95;;;;;;;1.21;86.29;97830.98;1663294;84;21445;-69
2021/01/12 04:31:08;;;;;;;9.60;7.17;;;;;;;1.17;86.33;97832.06;1663446;84;21183;-68
2021/01/12 04:33:37;;;;;;;10.48;6.92;;;;;;;1.10;86.47;97828.67;1663232;84;21147;-68
2021/01/12 04:36:27;;;;;;;8.65;5.92;;;;;;;1.10;86.51;97832.51;1663413;85;21176;-69
2021/01/12 04:38:55;;;;;;;15.75;6.58;;;;;;;1.09;86.57;97824.01;1669196;84;21179;-67
2021/01/12 04:41:24;;;;;;;12.65;7.00;;;;;;;1.03;87.13;97824.38;1638519;86;21587;-67
2021/01/12 04:43:52;;;;;;;8.90;7.15;;;;;;;1.03;87.11;97829.48;1669094;84;21599;-67
2021/01/12 04:46:20;;;;;;;10.95;6.62;;;;;;;1.04;87.06;97828.58;1638377;87;21253;-65
2021/01/12 04:48:50;;;;;;;11.93;6.15;;;;;;;1.07;86.97;97827.58;1668971;84;21656;-65
2021/01/12 04:51:23;;;;;;;14.38;7.60;;;;;;;1.08;86.91;97827.95;1669241;84;21171;-66
2021/01/12 04:53:51;;;;;;;10.63;7.22;;;;;;;1.08;86.86;97825.39;1638651;86;21229;-65
2021/01/12 04:56:22;;;;;;;11.70;7.00;;;;;;;1.10;86.80;97828.67;1661509;85;21318;-67
2021/01/12 04:58:52;;;;;;;9.73;6.78;;;;;;;1.11;86.75;97823.48;1638386;86;21202;-65
2021/01/12 05:01:29;;;;;;;10.20;7.33;;;;;;;1.05;86.81;97814.86;1669357;84;21607;-66
2021/01/12 05:03:57;;;;;;;14.60;8.13;;;;;;;1.07;86.75;97810.50;1669264;84;21175;-66
2021/01/12 05:06:27;;;;;;;13.03;6.60;;;;;;;1.06;87.13;97808.84;1638425;87;21154;-64
2021/01/12 05:08:56;;;;;;;17.73;6.80;;;;;;;1.03;87.12;97805.20;1670082;84;21234;-66
2021/01/12 05:11:34;;;;;;;14.93;8.40;;;;;;;1.06;87.01;97808.02;1668981;84;21179;-63
2021/01/12 05:14:09;;;;;;;12.73;7.40;;;;;;;1.03;87.05;97802.63;1638578;86;21225;-66
2021/01/12 05:16:53;;;;;;;13.43;7.80;;;;;;;1.04;87.02;97805.57;1669433;84;21226;-68
2021/01/12 05:19:28;;;;;;;11.08;7.70;;;;;;;1.05;87.04;97802.08;1638328;86;21153;-68
2021/01/12 05:22:25;;;;;;;14.33;7.97;;;;;;;1.06;87.05;97802.45;1669741;84;21182;-69
2021/01/12 05:25:20;;;;;;;11.40;7.03;;;;;;;1.07;87.01;97802.83;1663024;85;21210;-68
2021/01/12 05:27:53;;;;;;;13.55;6.62;;;;;;;1.09;87.04;97799.71;1727410;83;21162;-66
2021/01/12 05:30:26;;;;;;;12.82;7.53;;;;;;;1.10;87.02;97788.58;1727680;81;21317;-67
2021/01/12 05:32:56;;;;;;;11.75;8.45;;;;;;;1.08;87.01;97787.86;1694872;83;21188;-69
2021/01/12 05:35:40;;;;;;;11.45;7.25;;;;;;;1.10;86.92;97791.14;1727129;81;21219;-67
2021/01/12 05:38:10;;;;;;;11.80;6.95;;;;;;;1.11;87.00;97779.18;1717665;81;21152;-65
2021/01/12 05:40:41;;;;;;;14.43;9.18;;;;;;;1.14;86.94;97777.27;1720363;82;21224;-67
2021/01/12 05:43:13;;;;;;;16.05;8.45;;;;;;;1.15;86.82;97775.08;1722343;81;21182;-67
2021/01/12 05:45:44;;;;;;;13.80;8.83;;;;;;;1.12;87.00;97778.27;1727444;83;21345;-67
2021/01/12 05:48:12;;;;;;;14.78;8.85;;;;;;;0.94;87.85;97775.85;1727742;82;21364;-66
2021/01/12 05:50:40;;;;;;;10.50;6.65;;;;;;;1.00;88.04;97782.81;1727584;81;21599;-69
2021/01/12 05:53:20;;;;;;;11.28;8.63;;;;;;;1.06;87.81;97782.00;1727507;82;21588;-69
2021/01/12 05:58:32;;;;;;;14.95;9.10;;;;;;;1.11;87.82;97785.13;1709339;83;21200;-67
2021/01/12 06:01:03;;;;;;;13.75;8.50;;;;;;;1.16;87.69;97783.58;1664202;85;21613;-69
2021/01/12 06:03:34;;;;;;;18.05;8.68;;;;;;;1.21;87.43;97781.56;1696539;83;21216;-69
2021/01/12 06:06:03;;;;;;;18.82;10.53;;;;;;;1.26;87.21;97779.11;1689869;82;21223;-68
2021/01/12 06:08:33;;;;;;;15.32;8.80;;;;;;;1.31;87.04;97776.29;1695231;83;21172;-68
2021/01/12 06:11:07;;;;;;;14.10;9.60;;;;;;;1.35;86.81;97778.58;1685015;82;21140;-65
2021/01/12 06:13:39;;;;;;;17.27;10.38;;;;;;;1.36;86.61;97776.36;1689434;83;21204;-68
2021/01/12 06:16:13;;;;;;;15.10;10.40;;;;;;;1.39;86.46;97777.48;1687194;83;21136;-67
2021/01/12 06:18:46;;;;;;;12.88;8.33;;;;;;;1.41;86.38;97781.22;1694783;82;21176;-67
2021/01/12 06:21:18;;;;;;;13.40;8.40;;;;;;;1.42;86.15;97777.30;1699843;82;21588;-76
2021/01/12 06:23:56;;;;;;;18.75;8.95;;;;;;;1.46;86.14;97778.39;1705297;82;21636;-68
2021/01/12 06:26:27;;;;;;;16.73;9.48;;;;;;;1.38;85.74;97782.69;1710744;83;21223;-67
2021/01/12 06:28:56;;;;;;;20.27;11.03;;;;;;;1.19;86.01;97782.95;1698657;82;21169;-67
2021/01/12 06:31:26;;;;;;;25.05;14.63;;;;;;;1.30;86.45;97782.31;1684878;82;21192;-66
2021/01/12 06:34:18;;;;;;;16.67;9.78;;;;;;;1.04;87.78;97780.45;1666736;84;21200;-66
2021/01/12 06:36:53;;;;;;;20.82;12.78;;;;;;;1.10;87.83;97783.47;1679053;83;21608;-65
2021/01/12 06:39:50;;;;;;;25.00;13.47;;;;;;;1.12;87.47;97780.83;1670398;84;21355;-66
2021/01/12 06:42:24;;;;;;;;;;;;;;;1.20;87.35;97780.76;1731292;83;21274;-69
2021/01/12 06:44:54;;;;;;;14.35;9.35;;;;;;;1.26;87.11;97775.72;1745553;81;20137;-68
2021/01/12 06:47:28;;;;;;;19.17;10.65;;;;;;;1.30;87.06;97781.03;1754390;80;21147;-68
2021/01/12 06:50:18;;;;;;;21.23;11.15;;;;;;;1.34;86.87;97772.27;1754634;81;21223;-68
2021/01/12 06:52:49;;;;;;;15.48;11.22;;;;;;;1.39;86.75;97776.66;1754644;81;21222;-67
2021/01/12 06:55:20;;;;;;;16.25;8.08;;;;;;;1.40;86.50;97785.50;1754331;81;21175;-68
2021/01/12 06:57:54;;;;;;;14.33;9.60;;;;;;;1.42;86.41;97782.41;1754349;80;21140;-67
2021/01/12 07:00:24;;;;;;;11.97;7.85;;;;;;;1.40;86.20;97773.99;1754355;81;21136;-68
2021/01/12 07:02:59;;;;;;;17.37;10.50;;;;;;;1.41;86.06;97778.66;1754506;81;21580;-66
2021/01/12 07:05:42;;;;;;;15.28;9.25;;;;;;;1.33;86.05;97775.73;1754713;81;21611;-68
2021/01/12 07:08:13;;;;;;;15.65;9.08;;;;;;;1.33;86.25;97775.73;1754232;80;21124;-67
2021/01/12 07:10:46;;;;;;;12.75;8.20;;;;;;;1.36;86.39;97768.69;1754658;81;21159;-67
2021/01/12 07:13:15;;;;;;;14.93;8.85;;;;;;;1.33;86.52;97765.04;1754448;80;21163;-65
2021/01/12 07:15:53;;;;;;;15.40;9.35;;;;;;;1.37;86.37;97756.27;1754292;80;21569;-66
2021/01/12 07:18:39;;;;;;;24.15;10.40;;;;;;;1.39;86.44;97752.36;1716640;83;21298;-65
2021/01/12 07:21:13;;;;;;;21.15;10.00;;;;;;;1.42;86.39;97750.44;1681239;84;21238;-66
2021/01/12 07:23:41;;;;;;;19.85;11.80;;;;;;;1.42;86.62;97747.88;1714080;82;21136;-65
2021/01/12 07:26:11;;;;;;;24.45;10.43;;;;;;;1.33;87.59;97750.14;1705121;84;21163;-65
2021/01/12 07:29:08;;;;;;;18.75;11.53;;;;;;;1.32;87.85;97745.48;1705013;83;21611;-67
2021/01/12 07:31:38;;;;;;;22.90;12.28;;;;;;;1.19;88.37;97743.30;1694786;83;21197;-68
2021/01/12 07:34:15;;;;;;;27.50;12.88;;;;;;;1.17;88.24;97746.84;1695008;83;21174;-66
2021/01/12 07:36:46;;;;;;;20.32;12.10;;;;;;;1.14;88.86;97750.41;1695240;83;21166;-67
2021/01/12 07:39:16;;;;;;;20.15;13.00;;;;;;;1.22;88.51;97745.67;1695046;83;21142;-69
2021/01/12 07:41:48;;;;;;;16.60;11.55;;;;;;;1.26;88.18;97747.14;1695218;84;21160;-66
2021/01/12 07:44:18;;;;;;;19.05;12.82;;;;;;;1.30;88.07;97746.49;1695163;83;21221;-68
2021/01/12 07:46:48;;;;;;;17.25;11.22;;;;;;;1.10;90.64;97743.00;1695218;83;21218;-64
2021/01/12 07:49:17;;;;;;;24.60;13.30;;;;;;;1.08;91.00;97754.62;1695017;85;21198;-65
2021/01/12 07:51:45;;;;;;;23.95;12.25;;;;;;;1.00;90.29;97750.41;1695103;83;21655;-68
2021/01/12 07:54:25;;;;;;;25.45;14.25;;;;;;;1.12;90.69;97752.70;1695272;85;21197;-68
2021/01/12 07:56:55;;;;;;;17.07;10.08;;;;;;;1.01;90.29;97755.89;1688087;83;21179;-67
2021/01/12 07:59:23;;;;;;;17.75;11.95;;;;;;;1.13;90.39;97757.70;1669243;86;21882;-67
2021/01/12 08:01:52;;;;;;;14.20;9.50;;;;;;;1.26;89.96;97753.53;1669498;86;21176;-67
2021/01/12 08:04:21;;;;;;;15.58;8.95;;;;;;;1.43;89.34;97758.48;1670013;85;21304;-67
2021/01/12 08:06:49;;;;;;;15.65;9.05;;;;;;;1.54;88.24;97764.69;1669643;86;21593;-67
2021/01/12 08:09:22;;;;;;;11.80;7.42;;;;;;;1.70;88.31;97761.58;1669773;86;21199;-68
2021/01/12 08:11:57;;;;;;;13.85;9.00;;;;;;;1.85;87.91;97759.36;1668045;84;21224;-66
2021/01/12 08:14:25;;;;;;;15.48;8.83;;;;;;;1.93;86.59;97760.16;1668167;86;21235;-67
2021/01/12 08:16:55;;;;;;;15.35;9.53;;;;;;;2.02;86.19;97763.45;1669817;85;21231;-68
2021/01/12 08:19:25;;;;;;;23.45;13.43;;;;;;;1.98;85.67;97771.78;1670438;85;21202;-68
2021/01/12 08:21:54;;;;;;;18.12;11.60;;;;;;;1.83;85.94;97774.80;1669775;86;21218;-68
2021/01/12 08:24:47;;;;;;;20.35;9.83;;;;;;;1.90;86.32;97776.55;1674504;83;21206;-67
2021/01/12 08:27:21;;;;;;;22.62;13.08;;;;;;;1.99;86.15;97772.12;1696129;83;21170;-67
2021/01/12 08:29:49;;;;;;;19.52;10.68;;;;;;;2.05;86.30;97762.80;1656544;85;21168;-65
2021/01/12 08:32:41;;;;;;;23.42;10.30;;;;;;;2.42;93.72;97761.76;1690508;83;21142;-67
2021/01/12 08:35:13;;;;;;;30.75;14.53;;;;;;;2.46;88.66;97756.80;1711281;82;21590;-68
2021/01/12 08:37:44;;;;;;;18.57;11.00;;;;;;;2.41;86.15;97746.87;1688796;84;21226;-67
2021/01/12 08:40:15;;;;;;;21.12;11.88;;;;;;;2.17;84.50;97740.27;1706396;82;21137;-67
2021/01/12 08:43:08;;;;;;;24.90;12.43;;;;;;;2.16;85.24;97737.34;1699227;82;21244;-68
2021/01/12 08:45:37;;;;;;;18.85;9.40;;;;;;;2.31;86.37;97729.95;1667562;84;21609;-68
2021/01/12 08:48:18;;;;;;;24.25;11.25;;;;;;;2.43;85.23;97714.72;1655235;86;21275;-67
2021/01/12 08:50:47;;;;;;;16.90;9.60;;;;;;;2.55;84.76;97708.34;1654096;85;21215;-68
2021/01/12 08:53:19;;;;;;;21.07;9.95;;;;;;;2.67;84.83;97709.30;1665500;85;21576;-67
2021/01/12 08:55:49;;;;;;;18.98;9.93;;;;;;;2.68;84.13;97700.69;1648112;85;21216;-67
2021/01/12 08:58:20;;;;;;;18.90;10.25;;;;;;;2.75;83.66;97705.31;1662710;85;21220;-67
2021/01/12 09:00:52;;;;;;;19.20;10.65;;;;;;;2.78;82.91;97691.00;1664309;85;21219;-67
2021/01/12 09:03:21;;;;;;;24.75;11.05;;;;;;;2.84;83.10;97690.58;1663560;84;22562;-67
2021/01/12 09:05:53;;;;;;;22.87;11.05;;;;;;;2.91;83.00;97681.22;1643886;85;21172;-67
2021/01/12 09:08:25;;;;;;;22.73;11.38;;;;;;;3.01;82.05;97684.34;1671493;85;21192;-67
2021/01/12 09:10:54;;;;;;;21.60;11.18;;;;;;;2.95;82.14;97689.06;1665428;85;21301;-70
2021/01/12 09:13:29;;;;;;;23.12;11.15;;;;;;;3.08;82.19;97686.02;1666531;85;21148;-67
2021/01/12 09:15:58;;;;;;;29.18;11.83;;;;;;;3.18;82.11;97682.75;1666762;85;21679;-68
2021/01/12 09:18:27;;;;;;;27.45;11.90;;;;;;;3.26;80.00;97680.49;1662639;85;21180;-67
2021/01/12 09:21:07;;;;;;;24.30;13.03;;;;;;;3.31;80.43;97675.84;1645070;86;21615;-67
2021/01/12 09:23:37;;;;;;;22.55;11.33;;;;;;;2.93;81.44;97668.64;1646189;86;21203;-68
2021/01/12 09:26:10;;;;;;;24.87;12.63;;;;;;;3.12;80.64;97665.19;1663628;85;21624;-67
2021/01/12 09:28:39;;;;;;;22.80;10.85;;;;;;;2.54;82.18;97666.14;1664458;85;21265;-67
2021/01/12 09:31:20;;;;;;;27.45;15.35;;;;;;;2.88;79.96;97668.11;1699360;83;21546;-68
2021/01/12 09:34:15;;;;;;;21.05;11.22;;;;;;;2.83;81.10;97671.02;1696467;84;21153;-67
2021/01/12 09:36:44;;;;;;;20.08;9.88;;;;;;;3.01;80.84;97670.23;1747378;81;21583;-68
2021/01/12 09:39:34;;;;;;;17.65;8.35;;;;;;;3.17;79.24;97666.17;1742367;81;21188;-67
2021/01/12 09:42:04;;;;;;;20.05;10.10;;;;;;;3.10;78.08;97664.49;1648477;85;21180;-69
2021/01/12 09:44:40;;;;;;;29.35;10.10;;;;;;;3.15;78.88;97664.19;1679991;82;21164;-67
2021/01/12 09:47:09;;;;;;;22.73;10.82;;;;;;;3.18;79.58;97653.70;1690188;83;21178;-68
2021/01/12 09:49:37;;;;;;;19.85;8.95;;;;;;;3.29;79.65;97646.91;1672988;84;21175;-68
2021/01/12 09:52:06;;;;;;;18.95;8.45;;;;;;;3.41;79.84;97640.58;1690313;82;21198;-67
2021/01/12 09:54:34;;;;;;;19.52;8.25;;;;;;;3.50;79.94;97637.38;1682630;83;21231;-66
2021/01/12 09:57:03;;;;;;;19.42;9.13;;;;;;;3.53;78.54;97630.28;1707853;82;21576;-66
2021/01/12 09:59:31;;;;;;;21.10;9.50;;;;;;;3.50;78.08;97625.34;1667405;83;21167;-65
2021/01/12 10:02:00;;;;;;;19.85;10.63;;;;;;;3.56;78.75;97618.51;1707872;83;21606;-65
2021/01/12 10:04:31;;;;;;;20.65;10.13;;;;;;;3.54;77.25;97615.70;1703594;82;21308;-66
2021/01/12 10:07:00;;;;;;;19.60;9.13;;;;;;;3.49;76.83;97612.17;1673622;85;21161;-66
2021/01/12 10:09:29;;;;;;;19.37;9.20;;;;;;;3.50;77.15;97610.42;1679487;84;21191;-65
2021/01/12 10:11:57;;;;;;;21.40;9.80;;;;;;;3.56;77.82;97604.39;1688152;84;21166;-66
2021/01/12 10:14:26;;;;;;;20.90;9.48;;;;;;;3.63;77.75;97600.45;1698922;84;21196;-66
2021/01/12 10:16:54;;;;;;;18.70;8.68;;;;;;;3.65;76.36;97590.91;1698575;83;21581;-66
2021/01/12 10:19:23;;;;;;;24.57;11.33;;;;;;;3.63;76.35;97585.05;1698203;84;21644;-66
2021/01/12 10:21:52;;;;;;;21.75;11.35;;;;;;;3.56;77.00;97580.00;1698862;83;21214;-66
2021/01/12 10:24:22;;;;;;;27.25;12.70;;;;;;;3.42;78.24;97576.77;1698136;84;21246;-66
2021/01/12 10:26:54;;;;;;;17.92;8.33;;;;;;;3.34;78.13;97565.30;1697975;84;21655;-65
2021/01/12 10:29:26;;;;;;;20.62;9.63;;;;;;;3.49;78.07;97545.42;1695640;84;21587;-66
2021/01/12 10:32:18;;;;;;;20.60;9.33;;;;;;;3.69;77.49;97538.86;1686807;83;21141;-66
2021/01/12 10:34:46;;;;;;;15.20;9.20;;;;;;;3.99;77.29;97528.11;1692858;84;21162;-67
2021/01/12 10:37:14;;;;;;;16.07;8.50;;;;;;;4.29;75.70;97519.41;1680440;85;21145;-67
2021/01/12 10:42:24;;;;;;;17.00;9.80;;;;;;;4.64;73.69;97512.89;1679668;84;21701;-68
2021/01/12 10:44:52;;;;;;;20.25;10.88;;;;;;;4.51;74.03;97510.92;1738115;81;21594;-68
2021/01/12 10:47:21;;;;;;;29.52;14.87;;;;;;;4.09;73.74;97509.78;1738656;81;21215;-68
2021/01/12 10:49:50;;;;;;;21.80;10.60;;;;;;;3.87;76.74;97504.59;1738605;81;21237;-68
2021/01/12 10:52:19;;;;;;;20.70;11.57;;;;;;;3.82;76.64;97505.75;1738489;81;21857;-68
2021/01/12 10:54:48;;;;;;;17.70;9.67;;;;;;;3.87;77.39;97502.84;1738890;81;21161;-68
2021/01/12 10:57:16;;;;;;;16.20;8.15;;;;;;;4.14;76.31;97501.27;1738602;81;21173;-68
2021/01/12 10:59:45;;;;;;;15.38;8.98;;;;;;;4.27;74.86;97496.87;1716934;81;21278;-68
2021/01/12 11:02:38;;;;;;;23.67;10.82;;;;;;;4.22;74.93;97488.21;1714831;83;21159;-67
2021/01/12 11:05:29;;;;;;;18.65;10.28;;;;;;;4.20;75.44;97487.98;1692721;83;21611;-66
2021/01/12 11:08:03;;;;;;;17.52;9.03;;;;;;;4.14;75.21;97482.00;1713322;83;21166;-67
2021/01/12 11:10:31;;;;;;;21.33;9.85;;;;;;;3.93;76.29;97476.70;1709137;83;21649;-67
2021/01/12 11:13:01;;;;;;;19.67;10.15;;;;;;;3.64;77.78;97481.88;1709128;83;21688;-67
2021/01/12 11:15:31;;;;;;;21.02;8.65;;;;;;;3.40;77.94;97476.77;1691213;83;21205;-67
2021/01/12 11:17:59;;;;;;;16.27;8.63;;;;;;;3.76;77.95;97476.67;1708984;83;21264;-66
2021/01/12 11:20:28;;;;;;;18.15;8.10;;;;;;;3.46;79.14;97472.95;1711558;83;21114;-66
2021/01/12 11:22:56;;;;;;;12.50;6.37;;;;;;;3.32;77.87;97484.19;1717312;81;21170;-66
2021/01/12 11:25:25;;;;;;;12.60;7.12;;;;;;;3.39;78.10;97491.80;1713829;82;21569;-66
2021/01/12 11:27:54;;;;;;;13.85;7.03;;;;;;;3.19;79.17;97491.94;1718142;82;21855;-66
2021/01/12 11:30:23;;;;;;;14.50;6.33;;;;;;;3.14;79.63;97490.64;1641268;87;21195;-66
2021/01/12 11:32:52;;;;;;;8.08;5.30;;;;;;;3.01;80.29;97488.11;1686289;85;21186;-65
2021/01/12 11:35:43;;;;;;;9.78;5.08;;;;;;;2.98;79.90;97490.89;1686248;84;21620;-65
2021/01/12 11:38:16;;;;;;;10.30;6.40;;;;;;;2.74;78.74;97490.03;1687423;83;21178;-64
2021/01/12 11:40:44;;;;;;;10.90;5.78;;;;;;;2.61;81.56;97485.37;1687229;83;21328;-65
2021/01/12 11:43:12;;;;;;;16.40;7.78;;;;;;;2.66;81.72;97479.48;1687480;84;21505;-65
2021/01/12 11:45:42;;;;;;;14.90;7.58;;;;;;;2.61;81.69;97468.25;1687265;83;21178;-65
2021/01/12 11:48:11;;;;;;;11.50;6.08;;;;;;;2.54;82.58;97467.50;1687279;83;21337;-66
2021/01/12 11:50:40;;;;;;;20.00;8.73;;;;;;;2.59;82.82;97467.55;1687446;83;21150;-65
2021/01/12 11:53:08;;;;;;;17.10;7.10;;;;;;;2.72;82.88;97463.69;1687309;83;21162;-65
2021/01/12 11:55:42;;;;;;;10.63;6.33;;;;;;;2.76;82.06;97457.42;1686903;83;21225;-64
2021/01/12 11:58:10;;;;;;;13.53;6.78;;;;;;;2.66;82.30;97453.84;1687426;83;21135;-65